Praia, Cape Verde
Current Conditions -  °F | °C
As of 4:00 PM on Thursday 18 Dec 2014 (Local Time) from GVNP Reporting Station
Broken Clouds Broken Clouds  
Wind Chill: 75°   Ceiling: 1500
Heat Index: 75°   Visibility: 6mi
Dew Point: 66°   Wind: 21mph
Humidity: 73%   Direction: 70°ENE
Pressure: 29.94"   Gusts: NA
Location:  14.93°N, 23.54°W
Report Text: GVNP 181700Z 07018KT 9999 BKN015 24/19 Q1014 NOSIG
Loading
Personal Weather Stations






























Interactive Weather Map New forecast layout! Learn more

10-Day Weather Forecast

Advertisements
Track Severe Weather on mobile